createdAt,value
2023-08-17T00:00:16.354Z,80.48
2023-08-17T00:02:43.010Z,80.19
2023-08-17T00:05:10.149Z,80.51
2023-08-17T00:07:36.922Z,80.42
2023-08-17T00:10:04.112Z,80.49
2023-08-17T00:12:30.778Z,80.66
2023-08-17T00:14:57.432Z,80.61
2023-08-17T00:17:24.431Z,80.74
2023-08-17T00:19:51.394Z,80.48
2023-08-17T00:22:18.141Z,80.53
2023-08-17T00:24:46.234Z,80.09
2023-08-17T00:27:12.881Z,80.43
2023-08-17T00:29:39.824Z,80.41
2023-08-17T00:32:06.765Z,80.21
2023-08-17T00:34:33.410Z,80.31
2023-08-17T00:37:00.188Z,80.58
2023-08-17T00:39:26.880Z,80.58
2023-08-17T00:41:53.625Z,80.50
2023-08-17T00:44:20.555Z,81.13
2023-08-17T00:46:47.254Z,81.31
2023-08-17T00:49:13.950Z,81.23
2023-08-17T00:51:40.736Z,81.18
2023-08-17T00:54:07.417Z,80.88
2023-08-17T00:56:34.046Z,81.34
2023-08-17T00:59:00.694Z,82.10
2023-08-17T01:01:27.424Z,82.88
2023-08-17T01:03:54.106Z,82.56
2023-08-17T01:06:21.029Z,82.65
2023-08-17T01:08:47.798Z,82.63
2023-08-17T01:11:21.279Z,82.84
2023-08-17T01:13:56.660Z,82.67
2023-08-17T01:16:27.589Z,82.72
2023-08-17T01:18:54.243Z,82.60
2023-08-17T01:21:23.280Z,82.60
2023-08-17T01:23:50.296Z,82.54
2023-08-17T01:26:16.962Z,82.48
2023-08-17T01:28:47.047Z,82.61
2023-08-17T01:31:18.450Z,82.57
2023-08-17T01:33:51.352Z,82.50
2023-08-17T01:36:23.722Z,82.60
2023-08-17T01:38:51.424Z,82.21
2023-08-17T01:41:18.270Z,82.27
2023-08-17T01:43:48.936Z,82.15
2023-08-17T01:46:18.955Z,82.01
2023-08-17T01:48:46.084Z,81.76
2023-08-17T01:51:17.539Z,81.78
2023-08-17T01:53:44.233Z,81.81
2023-08-17T01:56:11.159Z,81.70
2023-08-17T01:58:37.918Z,81.56
2023-08-17T02:01:04.678Z,81.44
2023-08-17T02:03:31.450Z,81.40
2023-08-17T02:05:58.269Z,80.95
2023-08-17T02:08:24.996Z,81.19
2023-08-17T02:10:51.698Z,81.05
2023-08-17T02:13:19.841Z,81.12
2023-08-17T02:15:47.686Z,81.21
2023-08-17T02:18:14.338Z,81.08
2023-08-17T02:20:41.069Z,81.01
2023-08-17T02:23:07.734Z,81.29
2023-08-17T02:25:37.187Z,81.48
2023-08-17T02:28:04.823Z,81.41
2023-08-17T02:30:31.624Z,81.22
2023-08-17T02:32:58.857Z,81.21
2023-08-17T02:35:25.659Z,81.39
2023-08-17T02:37:52.492Z,81.53
2023-08-17T02:40:19.214Z,81.31
2023-08-17T02:42:45.918Z,81.68
2023-08-17T02:45:12.651Z,82.02
2023-08-17T02:47:39.501Z,82.11
2023-08-17T02:50:07.054Z,82.45
2023-08-17T02:52:33.712Z,82.37
2023-08-17T02:55:00.354Z,82.51
2023-08-17T02:57:27.304Z,82.68
2023-08-17T02:59:54.141Z,82.39
2023-08-17T03:02:20.893Z,82.42
2023-08-17T03:04:47.659Z,82.38
2023-08-17T03:07:14.358Z,82.51
2023-08-17T03:09:40.996Z,81.95
2023-08-17T03:12:08.092Z,82.08
2023-08-17T03:14:34.986Z,82.21
2023-08-17T03:17:01.641Z,82.54
2023-08-17T03:19:28.325Z,82.82
2023-08-17T03:21:55.010Z,83.18
2023-08-17T03:24:21.665Z,83.41
2023-08-17T03:26:48.350Z,83.02
2023-08-17T03:29:15.163Z,83.58
2023-08-17T03:31:41.853Z,83.38
2023-08-17T03:34:08.585Z,83.68
2023-08-17T03:36:35.261Z,84.12
2023-08-17T03:39:01.879Z,84.12
2023-08-17T03:41:28.539Z,84.11
2023-08-17T03:43:55.252Z,83.78
2023-08-17T03:46:21.948Z,84.63
2023-08-17T03:48:48.758Z,85.05
2023-08-17T03:51:15.470Z,85.70
2023-08-17T03:53:42.145Z,85.59
2023-08-17T03:56:08.811Z,86.22
2023-08-17T03:58:36.223Z,85.94
2023-08-17T04:01:04.341Z,85.56
2023-08-17T04:03:31.093Z,85.71
2023-08-17T04:05:57.797Z,85.68
2023-08-17T04:08:24.565Z,85.34
2023-08-17T04:10:51.377Z,85.15
2023-08-17T04:13:18.038Z,84.86
2023-08-17T04:15:44.757Z,84.46
2023-08-17T04:18:11.495Z,84.67
2023-08-17T04:20:38.168Z,84.52
2023-08-17T04:23:04.890Z,84.44
2023-08-17T04:25:31.579Z,84.19
2023-08-17T04:27:58.236Z,84.04
2023-08-17T04:30:24.980Z,85.23
2023-08-17T04:32:53.911Z,84.98
2023-08-17T04:35:21.371Z,85.61
2023-08-17T04:37:50.843Z,85.47
2023-08-17T04:40:17.704Z,85.15
2023-08-17T04:42:44.424Z,85.35
2023-08-17T04:45:11.207Z,85.15
2023-08-17T04:47:38.165Z,84.76
2023-08-17T04:50:05.253Z,85.00
2023-08-17T04:52:31.966Z,84.43
2023-08-17T04:54:58.606Z,84.31
2023-08-17T04:57:25.847Z,83.88
2023-08-17T04:59:52.826Z,83.79
2023-08-17T05:02:19.498Z,83.62
2023-08-17T05:04:47.458Z,83.55
2023-08-17T05:07:14.285Z,83.46
2023-08-17T05:09:40.944Z,83.10
2023-08-17T05:12:08.126Z,83.20
2023-08-17T05:14:35.465Z,83.09
2023-08-17T05:17:02.392Z,83.09
2023-08-17T05:19:29.015Z,83.10
2023-08-17T05:21:55.685Z,82.97
2023-08-17T05:24:22.556Z,83.23
2023-08-17T05:26:49.293Z,83.60
2023-08-17T05:29:16.039Z,83.98
2023-08-17T05:31:42.751Z,83.60
2023-08-17T05:34:09.390Z,83.57
2023-08-17T05:36:36.048Z,83.25
2023-08-17T05:39:02.743Z,83.26
2023-08-17T05:41:29.388Z,82.68
2023-08-17T05:43:56.456Z,82.64
2023-08-17T05:46:23.302Z,82.33
2023-08-17T05:48:50.156Z,81.98
2023-08-17T05:51:16.908Z,81.56
2023-08-17T05:53:43.566Z,79.85
2023-08-17T05:56:10.266Z,79.37
2023-08-17T05:58:36.906Z,75.84
2023-08-17T06:01:10.307Z,69.63
2023-08-17T06:03:38.512Z,65.56
2023-08-17T06:06:06.642Z,61.24
2023-08-17T06:08:33.942Z,57.39
2023-08-17T06:11:00.720Z,55.39
2023-08-17T06:13:27.425Z,50.24
2023-08-17T06:15:55.362Z,46.91
2023-08-17T06:18:23.161Z,42.14
2023-08-17T06:20:53.367Z,41.83
2023-08-17T06:23:20.932Z,40.70
2023-08-17T06:25:47.764Z,39.49
2023-08-17T06:28:14.464Z,41.04
2023-08-17T06:30:41.168Z,40.76
2023-08-17T06:33:07.947Z,41.76
2023-08-17T06:35:34.654Z,42.87
2023-08-17T06:38:01.349Z,43.49
2023-08-17T06:40:28.497Z,42.33
2023-08-17T06:42:55.588Z,41.65
2023-08-17T06:45:23.838Z,39.31
2023-08-17T06:47:50.923Z,38.33
2023-08-17T06:50:17.703Z,37.78
2023-08-17T06:52:44.587Z,38.77
2023-08-17T06:55:14.088Z,39.78
2023-08-17T06:57:40.771Z,41.44
2023-08-17T07:00:08.580Z,42.04
2023-08-17T07:02:50.587Z,43.66
2023-08-17T07:05:22.161Z,44.34
2023-08-17T07:07:49.331Z,46.00
2023-08-17T07:10:16.126Z,47.56
2023-08-17T07:12:43.159Z,49.87
2023-08-17T07:15:10.160Z,51.44
2023-08-17T07:17:38.608Z,51.75
2023-08-17T07:20:16.570Z,53.51
2023-08-17T07:22:47.637Z,53.41
2023-08-17T07:25:14.573Z,54.77
2023-08-17T07:27:41.855Z,55.05
2023-08-17T07:30:08.968Z,56.13
2023-08-17T07:32:35.750Z,56.84
2023-08-17T07:35:02.468Z,58.63
2023-08-17T07:37:34.248Z,60.34
2023-08-17T07:40:01.200Z,58.34
2023-08-17T07:42:28.142Z,57.77
2023-08-17T07:44:54.888Z,56.61
2023-08-17T07:47:21.599Z,55.84
2023-08-17T07:49:49.815Z,55.20
2023-08-17T07:52:17.411Z,56.06
2023-08-17T07:54:46.768Z,57.38
2023-08-17T07:57:13.507Z,58.09
2023-08-17T07:59:40.326Z,59.04
2023-08-17T08:02:07.249Z,59.59
2023-08-17T08:04:33.892Z,59.47
2023-08-17T08:07:00.655Z,59.68
2023-08-17T08:09:27.370Z,60.44
2023-08-17T08:12:02.914Z,57.79
2023-08-17T08:14:30.288Z,59.06
2023-08-17T08:16:57.136Z,58.72
2023-08-17T08:19:24.467Z,59.52
2023-08-17T08:21:51.161Z,59.92
2023-08-17T08:24:26.798Z,60.90
2023-08-17T08:27:05.590Z,61.79
2023-08-17T08:29:32.249Z,62.52
2023-08-17T08:32:01.005Z,62.92
2023-08-17T08:34:27.862Z,62.20
2023-08-17T08:36:54.589Z,62.16
2023-08-17T08:39:21.266Z,62.05
2023-08-17T08:41:48.260Z,62.68
2023-08-17T08:44:14.907Z,62.26
2023-08-17T08:46:43.111Z,62.17
2023-08-17T08:49:11.369Z,61.95
2023-08-17T08:51:40.217Z,61.86
2023-08-17T08:54:09.341Z,61.05
2023-08-17T08:56:36.368Z,58.60
2023-08-17T08:59:03.851Z,57.42
2023-08-17T09:01:31.738Z,53.53
2023-08-17T09:04:00.506Z,52.26
2023-08-17T09:06:27.465Z,52.34
2023-08-17T09:08:54.424Z,52.56
2023-08-17T09:11:21.099Z,55.39
2023-08-17T09:16:20.988Z,59.13
2023-08-17T09:18:49.457Z,59.26
2023-08-17T09:21:25.848Z,59.32
2023-08-17T09:26:25.964Z,59.75
2023-08-17T09:28:53.141Z,60.13
2023-08-17T09:31:22.922Z,59.54
2023-08-17T09:33:50.750Z,60.16
2023-08-17T09:36:23.557Z,59.81
2023-08-17T09:38:53.121Z,60.41
2023-08-17T09:41:20.329Z,60.98
2023-08-17T09:43:47.669Z,60.32
2023-08-17T09:46:14.393Z,60.58
2023-08-17T09:48:41.055Z,60.71
2023-08-17T09:51:07.971Z,60.99
2023-08-17T09:53:40.444Z,61.14
2023-08-17T09:56:17.647Z,62.08
2023-08-17T09:58:44.961Z,61.34
2023-08-17T10:01:14.918Z,61.21
2023-08-17T10:03:43.851Z,61.33
2023-08-17T10:06:11.550Z,60.34
2023-08-17T10:08:54.391Z,59.13
2023-08-17T10:11:21.681Z,59.42
2023-08-17T10:14:11.751Z,58.05
2023-08-17T10:16:49.280Z,57.80
2023-08-17T10:19:37.399Z,55.79
2023-08-17T10:22:34.932Z,57.24
2023-08-17T10:25:01.821Z,57.53
2023-08-17T10:27:28.775Z,57.01
2023-08-17T10:29:55.652Z,57.44
2023-08-17T10:32:23.446Z,56.10
2023-08-17T10:34:50.838Z,56.25
2023-08-17T10:37:18.062Z,55.70
2023-08-17T10:39:49.948Z,56.18
2023-08-17T10:42:20.802Z,55.78
2023-08-17T10:44:48.856Z,55.77
2023-08-17T10:47:28.201Z,53.78
2023-08-17T10:50:11.201Z,54.11
2023-08-17T10:52:40.667Z,55.04
2023-08-17T10:55:08.772Z,53.22
2023-08-17T10:57:36.407Z,53.56
2023-08-17T11:00:23.061Z,56.10
2023-08-17T11:03:02.500Z,54.53
2023-08-17T11:05:51.318Z,55.24
2023-08-17T11:08:22.110Z,52.98
2023-08-17T11:11:10.163Z,52.51
2023-08-17T11:13:41.158Z,51.46
2023-08-17T11:16:08.872Z,50.96
2023-08-17T11:18:35.888Z,50.31
2023-08-17T11:21:09.091Z,51.84
2023-08-17T11:23:36.621Z,48.88
2023-08-17T11:26:04.135Z,49.50
2023-08-17T11:28:42.509Z,49.26
2023-08-17T11:31:13.846Z,49.21
2023-08-17T11:33:41.262Z,49.96
2023-08-17T11:36:09.213Z,50.63
2023-08-17T11:38:43.417Z,51.36
2023-08-17T11:41:10.885Z,52.04
2023-08-17T11:43:38.108Z,49.81
2023-08-17T11:46:05.102Z,49.98
2023-08-17T11:48:36.521Z,50.52
2023-08-17T11:51:03.872Z,51.15
2023-08-17T11:53:37.854Z,52.15
2023-08-17T11:56:07.996Z,54.15
2023-08-17T11:58:47.154Z,54.73
2023-08-17T12:01:18.701Z,54.71
2023-08-17T12:03:45.833Z,52.58
2023-08-17T12:06:16.046Z,53.82
2023-08-17T12:24:16.803Z,67.12
2023-08-17T14:50:30.376Z,64.18
2023-08-17T14:52:57.333Z,63.03
2023-08-17T14:55:24.314Z,63.64
2023-08-17T14:57:50.946Z,63.79
2023-08-17T15:00:18.192Z,63.38
2023-08-17T15:02:44.970Z,61.63
2023-08-17T15:05:12.199Z,62.40
2023-08-17T15:07:38.940Z,61.04
2023-08-17T15:12:40.065Z,61.80
2023-08-17T15:15:08.212Z,63.05
2023-08-17T15:17:35.133Z,61.78
2023-08-17T15:20:01.890Z,61.91
2023-08-17T15:22:28.916Z,62.92
2023-08-17T15:24:55.604Z,62.43
2023-08-17T15:27:22.371Z,61.55
2023-08-17T15:29:49.062Z,60.70
2023-08-17T15:32:15.704Z,61.51
2023-08-17T15:34:42.350Z,61.05
2023-08-17T15:37:09.219Z,61.73
2023-08-17T15:39:36.050Z,61.62
2023-08-17T15:42:02.735Z,62.65
2023-08-17T15:44:31.315Z,62.15
2023-08-17T15:47:01.463Z,62.36
2023-08-17T15:49:28.581Z,62.44
2023-08-17T15:51:55.270Z,63.25
2023-08-17T15:54:33.529Z,63.42
2023-08-17T15:57:02.298Z,62.06
2023-08-17T15:59:28.969Z,62.54
2023-08-17T16:01:55.669Z,62.45
2023-08-17T16:04:22.500Z,62.85
2023-08-17T16:06:49.228Z,62.91
2023-08-17T16:09:15.956Z,63.69
2023-08-17T16:11:42.599Z,63.16
2023-08-17T16:14:09.234Z,62.99
2023-08-17T16:16:36.126Z,62.69
2023-08-17T16:19:05.238Z,62.49
2023-08-17T16:21:32.207Z,62.50
2023-08-17T16:23:58.893Z,62.49
2023-08-17T16:26:25.547Z,61.49
2023-08-17T16:28:52.195Z,61.77
2023-08-17T16:31:19.104Z,62.11
2023-08-17T16:33:46.470Z,63.21
2023-08-17T16:36:14.886Z,63.73
2023-08-17T16:38:42.580Z,62.85
2023-08-17T16:41:13.270Z,62.83
2023-08-17T16:43:40.057Z,62.52
2023-08-17T16:46:06.777Z,62.83
2023-08-17T16:48:33.616Z,62.29
2023-08-17T16:51:00.340Z,62.51
2023-08-17T16:53:26.989Z,61.87
2023-08-17T16:55:55.738Z,62.26
2023-08-17T16:58:22.542Z,63.10
2023-08-17T17:00:49.280Z,62.62
2023-08-17T17:03:16.022Z,62.79
2023-08-17T17:05:42.898Z,62.81
2023-08-17T17:08:09.710Z,62.87
2023-08-17T17:10:36.386Z,62.79
2023-08-17T17:13:03.165Z,62.81
2023-08-17T17:15:29.897Z,62.74
2023-08-17T17:17:58.685Z,63.36
2023-08-17T17:20:25.395Z,63.52
2023-08-17T17:22:52.573Z,63.82
2023-08-17T17:25:19.358Z,63.91
2023-08-17T17:27:46.034Z,64.31
2023-08-17T17:30:13.206Z,64.64
2023-08-17T17:32:39.929Z,65.03
2023-08-17T17:35:07.205Z,65.05
2023-08-17T17:37:34.026Z,65.00
2023-08-17T17:40:00.744Z,65.23
2023-08-17T17:42:27.599Z,65.18
2023-08-17T17:44:55.696Z,65.78
2023-08-17T17:47:24.663Z,65.47
2023-08-17T17:49:51.372Z,65.82
2023-08-17T17:52:19.484Z,65.96
2023-08-17T17:54:46.425Z,66.37
2023-08-17T17:57:13.074Z,67.16
2023-08-17T17:59:39.742Z,67.28
2023-08-17T18:02:07.353Z,67.73
2023-08-17T18:04:34.200Z,67.81
2023-08-17T18:07:00.925Z,68.00
2023-08-17T18:09:28.072Z,68.14
2023-08-17T18:11:54.885Z,68.81
2023-08-17T18:14:21.605Z,69.04
2023-08-17T18:16:48.319Z,69.45
2023-08-17T18:19:15.485Z,69.56
2023-08-17T18:21:42.145Z,70.08
2023-08-17T18:24:09.218Z,70.63
2023-08-17T18:26:35.826Z,71.13
2023-08-17T18:29:04.224Z,71.55
2023-08-17T18:31:31.120Z,72.48
2023-08-17T18:33:57.829Z,72.44
2023-08-17T18:36:24.522Z,72.63
2023-08-17T18:38:51.278Z,72.95
2023-08-17T18:41:17.983Z,73.27
2023-08-17T18:43:45.100Z,73.23
2023-08-17T18:46:11.884Z,73.37
2023-08-17T18:48:38.549Z,73.69
2023-08-17T18:51:05.175Z,75.27
2023-08-17T18:53:31.817Z,75.00
2023-08-17T18:55:58.475Z,75.12
2023-08-17T18:58:27.919Z,75.45
2023-08-17T19:00:54.761Z,76.21
2023-08-17T19:03:21.640Z,75.86
2023-08-17T19:05:48.401Z,76.15
2023-08-17T19:08:17.234Z,76.29
2023-08-17T19:10:43.971Z,78.39
2023-08-17T19:13:14.942Z,78.24
2023-08-17T19:15:46.458Z,78.80
2023-08-17T19:18:13.458Z,78.66
2023-08-17T19:20:43.008Z,79.06
2023-08-17T19:23:10.130Z,79.48
2023-08-17T19:25:37.501Z,79.61
2023-08-17T19:28:04.689Z,80.02
2023-08-17T19:30:32.587Z,80.06
2023-08-17T19:33:01.246Z,79.68
2023-08-17T19:35:28.590Z,79.27
2023-08-17T19:37:56.758Z,79.21
2023-08-17T19:40:25.084Z,79.57
2023-08-17T19:42:53.253Z,79.80
2023-08-17T19:45:21.237Z,79.92
2023-08-17T19:47:49.220Z,81.01
2023-08-17T19:50:18.054Z,81.70
2023-08-17T19:52:46.005Z,80.75
2023-08-17T19:55:14.577Z,79.61
2023-08-17T19:57:43.355Z,80.24
2023-08-17T20:00:13.386Z,79.86
2023-08-17T20:02:41.497Z,80.11
2023-08-17T20:05:10.790Z,80.41
2023-08-17T20:07:38.034Z,80.42
2023-08-17T20:10:05.711Z,80.17
2023-08-17T20:12:32.369Z,80.12
2023-08-17T20:14:59.125Z,79.90
2023-08-17T20:17:26.462Z,80.03
2023-08-17T20:19:54.139Z,79.83
2023-08-17T20:22:21.305Z,79.58
2023-08-17T20:24:48.666Z,79.21
2023-08-17T20:27:15.784Z,79.27
2023-08-17T20:29:43.213Z,79.21
2023-08-17T20:32:10.409Z,78.98
2023-08-17T20:34:38.120Z,78.61
2023-08-17T20:37:05.405Z,78.41
2023-08-17T20:39:32.470Z,78.62
2023-08-17T20:42:07.942Z,78.62
2023-08-17T20:44:34.857Z,78.29
2023-08-17T20:47:01.569Z,78.48
2023-08-17T20:49:28.719Z,78.72
2023-08-17T20:51:55.377Z,79.01
2023-08-17T20:54:22.090Z,78.58
2023-08-17T20:56:49.709Z,78.56
2023-08-17T20:59:16.782Z,78.44
2023-08-17T21:01:43.562Z,78.09
2023-08-17T21:04:10.420Z,78.34
2023-08-17T21:06:42.284Z,78.36
2023-08-17T21:09:10.037Z,78.48
2023-08-17T21:11:40.243Z,78.06
2023-08-17T21:14:07.668Z,77.84
2023-08-17T21:16:34.516Z,78.67
2023-08-17T21:19:01.576Z,78.33
2023-08-17T21:21:29.158Z,78.43
2023-08-17T21:23:56.830Z,79.14
2023-08-17T21:26:24.312Z,79.56
2023-08-17T21:28:51.763Z,79.63
2023-08-17T21:31:18.678Z,79.57
2023-08-17T21:33:45.383Z,79.99
2023-08-17T21:36:12.037Z,79.93
2023-08-17T21:38:38.740Z,79.95
2023-08-17T21:41:05.492Z,79.93
2023-08-17T21:43:32.431Z,80.18
2023-08-17T21:45:59.937Z,79.67
2023-08-17T21:48:27.053Z,79.85
2023-08-17T21:50:53.799Z,80.09
2023-08-17T21:53:20.823Z,79.60
2023-08-17T21:55:51.473Z,79.08
2023-08-17T21:58:21.623Z,78.90
2023-08-17T22:00:49.753Z,78.83
2023-08-17T22:03:16.872Z,79.36
2023-08-17T22:05:46.489Z,79.54
2023-08-17T22:08:14.412Z,79.50
2023-08-17T22:10:41.613Z,79.50
2023-08-17T22:13:08.550Z,79.43
2023-08-17T22:15:36.072Z,79.25
2023-08-17T22:18:02.972Z,78.95
2023-08-17T22:20:29.813Z,78.40
2023-08-17T22:22:56.513Z,78.37
2023-08-17T22:25:23.439Z,78.38
2023-08-17T22:27:50.184Z,78.56
2023-08-17T22:30:16.904Z,78.28
2023-08-17T22:32:43.586Z,78.44
2023-08-17T22:35:11.648Z,79.29
2023-08-17T22:37:38.736Z,79.15
2023-08-17T22:40:07.482Z,78.80
2023-08-17T22:42:34.285Z,78.84
2023-08-17T22:45:00.977Z,78.88
2023-08-17T22:47:28.177Z,79.15
2023-08-17T22:49:55.781Z,79.28
2023-08-17T22:52:22.547Z,79.06
2023-08-17T22:54:49.737Z,79.46
2023-08-17T22:57:16.456Z,79.72
2023-08-17T22:59:43.187Z,80.02
2023-08-17T23:02:09.936Z,80.20
2023-08-17T23:04:36.888Z,80.53
2023-08-17T23:07:03.896Z,80.63
2023-08-17T23:09:30.600Z,80.59
2023-08-17T23:11:57.430Z,80.51
2023-08-17T23:14:24.434Z,80.37
2023-08-17T23:16:51.286Z,80.44
2023-08-17T23:19:18.104Z,80.48
2023-08-17T23:21:44.918Z,80.81
2023-08-17T23:24:11.551Z,80.92
2023-08-17T23:26:38.219Z,80.97
2023-08-17T23:29:05.182Z,81.13
2023-08-17T23:31:32.593Z,80.45
2023-08-17T23:33:59.367Z,80.30
2023-08-17T23:36:26.935Z,80.22
2023-08-17T23:38:53.702Z,79.88
2023-08-17T23:41:20.387Z,80.10
2023-08-17T23:43:47.038Z,79.89
2023-08-17T23:46:13.801Z,80.04
2023-08-17T23:48:40.593Z,80.21
2023-08-17T23:51:07.256Z,79.95
2023-08-17T23:53:33.923Z,80.08
2023-08-17T23:56:00.587Z,79.91
2023-08-17T23:58:27.267Z,79.86
